Flight Track Log - Related Links

Times and Time Zones

All times are in EDT time to prevent confusion due to time zone crossing. See the SWA561 flight status page for this flight to view local times or setup timezone preferences in your user account.

Time Position Orientation Groundspeed Altitude Reporting Facility
EDT Latitude Longitude Course Direction KTS MPH feet Rate Location/Type
Wed 08:17:11 PM 37.7333 -122.2667 150° Southeast 195 224 2,700  Level Northern Cal TRACON
Wed 08:18:05 PM 37.7333 -122.3333 270° West 253 291 4,900 3,263 Climbing Northern Cal TRACON
Wed 08:19:05 PM 37.7000 -122.4167 243° Southwest 298 343 8,900 3,810 Climbing Northern Cal TRACON
Wed 08:20:11 PM 37.6114 -122.4450 194° South 313 360 12,900 3,750 Climbing Oakland Center
Wed 08:21:13 PM 37.5408 -122.3661 138° Southeast 345 397 16,900 3,171 Climbing Oakland Center
Wed 08:22:00 PM 37.3216 -122.3559 150° Southeast  Level FlightAware Approximate
Wed 08:22:14 PM 37.4694 -122.2747 135° Southeast 361 415 19,400  Level Oakland Center
Wed 08:23:15 PM 37.3939 -122.1778 134° Southeast 381 438 22,500 2,902 Climbing Oakland Center
Wed 08:24:16 PM 37.3144 -122.0742 134° Southeast 406 467 25,300 2,439 Climbing Oakland Center
Wed 08:25:18 PM 37.2319 -121.9658 134° Southeast 425 489 27,500 2,341 Climbing Oakland Center
Wed 08:26:19 PM 37.1464 -121.8550 134° Southeast 437 503 30,100 2,262 Climbing Oakland Center
Wed 08:27:20 PM 37.0594 -121.7433 134° Southeast 447 514 32,100 2,311 Climbing Oakland Center
Wed 08:28:21 PM 36.9503 -121.6081 135° Southeast 461 531 34,800 2,244 Climbing Oakland Center
Wed 08:29:23 PM 36.8628 -121.4944 134° Southeast 457 526 36,700 1,707 Climbing Oakland Center
Wed 08:30:24 PM 36.7844 -121.3925 134° Southeast 458 527 38,300 1,426 Climbing Oakland Center
Wed 08:31:25 PM 36.6956 -121.2800 135° Southeast 458 527 39,600 1,230 Climbing Oakland Center
Wed 08:32:26 PM 36.5864 -121.1428 135° Southeast 465 535 40,800 683 Climbing Oakland Center
Wed 08:33:28 PM 36.4953 -121.0264 134° Southeast 469 540 41,000 98 Climbing Oakland Center
Wed 08:34:29 PM 36.4039 -120.9131 135° Southeast 466 536 41,000  Level Oakland Center
Wed 08:35:30 PM 36.3142 -120.7978 134° Southeast 465 535 41,000  Level Oakland Center
Wed 08:36:31 PM 36.2217 -120.6872 136° Southeast 463 533 41,000  Level Oakland Center
Wed 08:37:32 PM 36.1319 -120.5747 135° Southeast 458 527 41,000  Level Oakland Center
Wed 08:38:33 PM 36.0417 -120.4600 134° Southeast 464 534 41,000  Level Oakland Center
Wed 08:39:35 PM 35.9533 -120.3528 135° Southeast 444 511 41,000  Level Oakland Center
Wed 08:40:36 PM 35.8642 -120.2442 135° Southeast 448 516 41,000  Level Oakland Center
Wed 08:41:37 PM 35.7744 -120.1342 135° Southeast 450 518 41,000  Level Oakland Center
Wed 08:42:38 PM 35.6844 -120.0253 135° Southeast 450 518 41,000  Level Oakland Center
Wed 08:43:39 PM 35.5869 -119.9264 140° Southeast 450 518 41,000  Level Oakland Center
Wed 08:44:40 PM 35.4831 -119.8378 145° Southeast 450 518 41,000  Level Oakland Center
Wed 08:45:41 PM 35.3792 -119.7486 145° Southeast 451 519 41,000 -72 Level Oakland Center
Wed 08:46:03 PM 35.3389 -119.7125 144° Southeast 453 521 40,900 -776 Descending Los Angeles Center
Wed 08:47:06 PM 35.2356 -119.6236 145° Southeast 452 520 39,900 -1,200 Descending Los Angeles Center
Wed 08:48:08 PM 35.1158 -119.5242 146° Southeast 435 501 38,400 -1,984 Descending Los Angeles Center
Wed 08:49:10 PM 35.0197 -119.4392 144° Southeast 427 491 35,800 -2,903 Descending Los Angeles Center
Wed 08:50:12 PM 34.9206 -119.3553 145° Southeast 432 497 32,400 -2,952 Descending Los Angeles Center
Wed 08:51:14 PM 34.8233 -119.2717 145° Southeast 429 494 29,700 -2,565 Descending Los Angeles Center
Wed 08:52:16 PM 34.7267 -119.1911 146° Southeast 422 486 27,100 -2,613 Descending Los Angeles Center
Wed 08:53:18 PM 34.6239 -119.1058 146° Southeast 402 463 24,300 -2,565 Descending Los Angeles Center
Wed 08:54:20 PM 34.5333 -119.0286 145° Southeast 390 449 21,800 -2,419 Descending Los Angeles Center
Wed 08:55:22 PM 34.4456 -118.9544 145° Southeast 381 438 19,300 -2,274 Descending Los Angeles Center
Wed 08:56:24 PM 34.3664 -118.8894 146° Southeast 345 397 17,100 -2,226 Descending Los Angeles Center
Wed 08:57:26 PM 34.2783 -118.8514 160° South 338 389 14,700 -2,468 Descending Los Angeles Center
Wed 08:58:28 PM 34.1736 -118.8133 163° South 328 377 12,000 -2,177 Descending Los Angeles Center
Wed 08:59:30 PM 34.0972 -118.7694 155° Southeast 313 360 10,200 -968 Descending Los Angeles Center
Wed 09:00:32 PM 34.0725 -118.6806 109° East 251 289 10,000 -581 Descending Los Angeles Center
Wed 09:01:34 PM 34.0517 -118.6067 109° East 235 270 9,000 -1,171 Descending Los Angeles Center
Wed 09:02:35 PM 34.0300 -118.5278 108° East 230 265 7,600 -976 Descending Los Angeles Center
Wed 09:03:37 PM 34.0131 -118.4597 107° East 234 269 7,000 -774 Descending Los Angeles Center
Wed 09:04:39 PM 34.0264 -118.3867 78° East 238 274 6,000 -1,161 Descending Los Angeles Center
Wed 09:05:41 PM 34.0397 -118.2911 80° East 240 276 4,600 -1,306 Descending Los Angeles Center
Wed 09:06:43 PM 34.0350 -118.2206 95° East 222 255 3,300 -1,161 Descending Los Angeles Center
Wed 09:07:45 PM 33.9811 -118.2247 184° South 204 235 2,200 -581 Descending Los Angeles Center
Wed 09:08:47 PM 33.9642 -118.2808 250° West 188 216 2,100 -435 Descending Los Angeles Center
Wed 09:09:49 PM 33.9600 -118.3308 264° West 168 193 1,300 -732 Descending Los Angeles Center
Wed 09:10:50 PM 33.9556 -118.3744 263° West 148 170 600 -537 Descending Los Angeles Center
Wed 09:11:52 PM 33.9494 -118.4247 262° West 142 163 200 -387 Descending Los Angeles Center
Wed 09:13:00 PM 33.9425 -118.4081 270° West  Level Estimated

Login

Don't have an account? Register now (free) for customized features, flight alerts, and more!